createdAt,value
2024-01-28T00:01:55.453Z,12.64
2024-01-28T00:04:21.973Z,12.45
2024-01-28T00:06:48.451Z,12.56
2024-01-28T00:09:16.018Z,12.06
2024-01-28T00:11:42.435Z,12.45
2024-01-28T00:14:08.852Z,12.47
2024-01-28T00:16:35.300Z,11.13
2024-01-28T00:19:01.884Z,11.28
2024-01-28T00:21:28.359Z,10.97
2024-01-28T00:23:54.975Z,11.54
2024-01-28T00:26:21.529Z,12.18
2024-01-28T00:28:48.148Z,12.29
2024-01-28T00:31:16.974Z,12.49
2024-01-28T00:33:43.592Z,12.62
2024-01-28T00:36:10.218Z,12.70
2024-01-28T00:38:36.807Z,11.71
2024-01-28T00:41:03.584Z,11.99
2024-01-28T00:43:30.192Z,11.99
2024-01-28T00:45:56.845Z,11.88
2024-01-28T00:48:23.609Z,12.27
2024-01-28T00:50:50.260Z,12.41
2024-01-28T00:53:16.847Z,12.32
2024-01-28T00:55:43.441Z,13.07
2024-01-28T00:58:10.018Z,12.89
2024-01-28T01:00:36.645Z,12.77
2024-01-28T01:03:03.321Z,12.71
2024-01-28T01:05:29.972Z,12.84
2024-01-28T01:07:56.552Z,12.95
2024-01-28T01:10:23.251Z,12.57
2024-01-28T01:12:49.829Z,12.64
2024-01-28T01:15:16.514Z,12.46
2024-01-28T01:17:43.210Z,13.18
2024-01-28T01:20:09.801Z,12.63
2024-01-28T01:22:36.382Z,12.53
2024-01-28T01:25:03.271Z,12.29
2024-01-28T01:27:30.151Z,12.53
2024-01-28T01:29:56.750Z,12.55
2024-01-28T01:32:23.333Z,12.25
2024-01-28T01:34:50.140Z,11.99
2024-01-28T01:37:16.862Z,11.62
2024-01-28T01:39:43.584Z,11.32
2024-01-28T01:42:10.268Z,11.20
2024-01-28T01:44:36.924Z,11.64
2024-01-28T01:47:03.472Z,11.18
2024-01-28T01:49:30.137Z,11.26
2024-01-28T01:51:56.729Z,11.51
2024-01-28T01:54:23.341Z,11.57
2024-01-28T01:56:49.923Z,11.57
2024-01-28T01:59:16.468Z,11.58
2024-01-28T02:01:43.053Z,11.47
2024-01-28T02:04:09.743Z,11.61
2024-01-28T02:06:36.449Z,11.72
2024-01-28T02:09:03.129Z,11.61
2024-01-28T02:11:32.083Z,11.99
2024-01-28T02:13:58.653Z,11.89
2024-01-28T02:16:25.241Z,11.89
2024-01-28T02:18:52.022Z,11.69
2024-01-28T02:21:24.733Z,12.30
2024-01-28T02:23:51.370Z,11.79
2024-01-28T02:26:18.197Z,12.14
2024-01-28T02:28:44.793Z,12.15
2024-01-28T02:31:11.358Z,12.54
2024-01-28T02:33:38.113Z,12.08
2024-01-28T02:36:04.771Z,11.97
2024-01-28T02:38:31.339Z,12.31
2024-01-28T02:40:57.926Z,12.69
2024-01-28T02:43:24.478Z,11.68
2024-01-28T02:45:57.114Z,12.22
2024-01-28T02:48:23.707Z,12.43
2024-01-28T02:50:50.273Z,11.79
2024-01-28T02:53:16.848Z,12.04
2024-01-28T02:55:43.443Z,12.13
2024-01-28T02:58:10.037Z,12.75
2024-01-28T03:00:36.615Z,12.01
2024-01-28T03:03:03.294Z,12.04
2024-01-28T03:05:29.898Z,12.18
2024-01-28T03:07:57.476Z,11.95
2024-01-28T03:10:24.040Z,12.07
2024-01-28T03:12:50.709Z,12.05
2024-01-28T03:15:17.389Z,12.62
2024-01-28T03:17:44.000Z,12.80
2024-01-28T03:20:10.603Z,12.61
2024-01-28T03:22:37.248Z,12.43
2024-01-28T03:25:03.803Z,13.15
2024-01-28T03:27:30.416Z,12.97
2024-01-28T03:29:57.001Z,12.82
2024-01-28T03:32:23.579Z,12.69
2024-01-28T03:34:50.493Z,12.89
2024-01-28T03:37:17.297Z,13.15
2024-01-28T03:39:44.001Z,13.03
2024-01-28T03:42:10.640Z,13.49
2024-01-28T03:44:37.249Z,12.70
2024-01-28T03:47:03.824Z,12.23
2024-01-28T03:49:30.518Z,11.80
2024-01-28T03:51:58.582Z,11.97
2024-01-28T03:54:25.200Z,11.29
2024-01-28T03:56:51.817Z,11.94
2024-01-28T03:59:18.378Z,11.91
2024-01-28T04:01:45.132Z,11.94
2024-01-28T04:04:11.792Z,12.20
2024-01-28T04:06:38.436Z,12.05
2024-01-28T04:09:05.078Z,12.57
2024-01-28T04:11:31.640Z,12.62
2024-01-28T04:13:58.425Z,12.04
2024-01-28T04:16:27.374Z,12.24
2024-01-28T04:18:54.137Z,11.90
2024-01-28T04:21:20.794Z,11.49
2024-01-28T04:23:47.359Z,11.80
2024-01-28T04:26:13.907Z,11.94
2024-01-28T04:28:40.506Z,11.72
2024-01-28T04:31:07.068Z,11.88
2024-01-28T04:33:33.740Z,12.36
2024-01-28T04:36:00.382Z,12.08
2024-01-28T04:38:26.922Z,12.15
2024-01-28T04:40:55.104Z,12.14
2024-01-28T04:43:21.901Z,12.66
2024-01-28T04:45:48.557Z,12.04
2024-01-28T04:48:15.327Z,12.09
2024-01-28T04:50:42.004Z,12.35
2024-01-28T04:53:16.818Z,12.43
2024-01-28T04:55:43.368Z,12.46
2024-01-28T04:58:09.940Z,12.16
2024-01-28T05:00:36.799Z,12.25
2024-01-28T05:03:03.601Z,12.28
2024-01-28T05:05:30.123Z,12.94
2024-01-28T05:07:56.539Z,12.68
2024-01-28T05:10:22.969Z,12.65
2024-01-28T05:12:49.460Z,12.53
2024-01-28T05:15:15.880Z,12.14
2024-01-28T05:17:42.337Z,12.70
2024-01-28T05:20:08.766Z,12.73
2024-01-28T05:22:35.171Z,12.40
2024-01-28T05:25:01.581Z,12.33
2024-01-28T05:27:28.250Z,12.56
2024-01-28T05:29:54.712Z,12.17
2024-01-28T05:32:21.132Z,12.41
2024-01-28T05:34:47.625Z,11.97
2024-01-28T05:37:14.135Z,12.96
2024-01-28T05:39:40.551Z,12.36
2024-01-28T05:42:07.024Z,12.13
2024-01-28T05:44:35.914Z,12.45
2024-01-28T05:47:02.342Z,13.44
2024-01-28T05:49:28.806Z,13.30
2024-01-28T05:51:55.348Z,13.72
2024-01-28T05:54:21.820Z,13.24
2024-01-28T05:56:50.744Z,13.50
2024-01-28T05:59:17.162Z,13.61
2024-01-28T06:01:49.746Z,13.08
2024-01-28T06:04:16.508Z,13.23
2024-01-28T06:06:43.162Z,13.16
2024-01-28T06:09:09.827Z,13.21
2024-01-28T06:11:36.393Z,13.08
2024-01-28T06:14:03.039Z,13.28
2024-01-28T06:16:29.596Z,13.27
2024-01-28T06:18:56.281Z,13.11
2024-01-28T06:21:22.914Z,13.57
2024-01-28T06:23:49.519Z,13.33
2024-01-28T06:26:16.452Z,13.30
2024-01-28T06:28:43.156Z,13.60
2024-01-28T06:31:09.736Z,13.45
2024-01-28T06:33:36.406Z,13.31
2024-01-28T06:36:03.057Z,13.29
2024-01-28T06:38:29.611Z,13.58
2024-01-28T06:40:56.173Z,13.27
2024-01-28T06:43:22.730Z,13.29
2024-01-28T06:45:49.473Z,13.85
2024-01-28T06:48:16.202Z,13.34
2024-01-28T06:50:42.874Z,13.36
2024-01-28T06:53:09.438Z,13.07
2024-01-28T06:55:36.011Z,13.24
2024-01-28T06:58:02.591Z,13.51
2024-01-28T07:00:29.251Z,13.36
2024-01-28T07:02:58.887Z,13.51
2024-01-28T07:05:25.467Z,14.20
2024-01-28T07:07:52.039Z,14.59
2024-01-28T07:10:18.636Z,14.86
2024-01-28T07:12:47.411Z,15.16
2024-01-28T07:15:14.233Z,15.28
2024-01-28T07:17:40.969Z,15.17
2024-01-28T07:20:08.242Z,16.00
2024-01-28T07:22:34.910Z,16.63
2024-01-28T07:25:01.563Z,18.25
2024-01-28T07:27:28.196Z,17.81
2024-01-28T07:29:54.737Z,17.44
2024-01-28T07:32:21.275Z,16.56
2024-01-28T07:34:47.956Z,16.57
2024-01-28T07:37:14.576Z,16.50
2024-01-28T07:39:41.170Z,16.12
2024-01-28T07:42:07.815Z,17.40
2024-01-28T07:44:40.451Z,16.16
2024-01-28T07:47:07.014Z,15.54
2024-01-28T07:49:34.047Z,16.44
2024-01-28T07:52:00.684Z,16.38
2024-01-28T07:54:35.698Z,17.09
2024-01-28T07:57:02.521Z,16.85
2024-01-28T07:59:29.107Z,16.95
2024-01-28T08:01:55.701Z,16.73
2024-01-28T08:04:22.409Z,16.53
2024-01-28T08:06:49.180Z,16.50
2024-01-28T08:09:15.826Z,16.32
2024-01-28T08:11:42.406Z,16.31
2024-01-28T08:14:08.989Z,16.43
2024-01-28T08:16:35.574Z,16.66
2024-01-28T08:19:02.213Z,16.89
2024-01-28T08:21:28.925Z,16.43
2024-01-28T08:23:55.584Z,17.21
2024-01-28T08:26:22.173Z,17.70
2024-01-28T08:28:48.771Z,16.99
2024-01-28T08:31:15.360Z,17.22
2024-01-28T08:33:42.066Z,17.31
2024-01-28T08:36:08.712Z,18.16
2024-01-28T08:38:35.394Z,17.42
2024-01-28T08:41:01.971Z,17.40
2024-01-28T08:43:28.545Z,17.72
2024-01-28T08:45:55.201Z,17.59
2024-01-28T08:48:21.953Z,17.08
2024-01-28T08:50:48.591Z,17.19
2024-01-28T08:53:15.394Z,17.23
2024-01-28T08:55:41.986Z,17.54
2024-01-28T08:58:08.862Z,18.55
2024-01-28T09:00:35.607Z,18.58
2024-01-28T09:03:02.203Z,17.74
2024-01-28T09:05:29.109Z,17.78
2024-01-28T09:07:56.090Z,17.24
2024-01-28T09:10:22.673Z,16.98
2024-01-28T09:12:49.369Z,17.03
2024-01-28T09:15:16.174Z,18.10
2024-01-28T09:17:42.831Z,17.26
2024-01-28T09:20:09.453Z,15.56
2024-01-28T09:22:36.215Z,15.45
2024-01-28T09:25:02.764Z,15.42
2024-01-28T09:27:29.873Z,15.64
2024-01-28T09:29:56.674Z,16.03
2024-01-28T09:32:23.354Z,16.28
2024-01-28T09:34:50.036Z,16.52
2024-01-28T09:37:16.681Z,16.86
2024-01-28T09:39:43.345Z,15.96
2024-01-28T09:42:10.118Z,15.83
2024-01-28T09:44:36.699Z,15.69
2024-01-28T09:47:04.371Z,15.33
2024-01-28T09:49:31.034Z,16.06
2024-01-28T09:51:57.922Z,16.22
2024-01-28T09:54:24.674Z,16.55
2024-01-28T09:56:54.545Z,16.10
2024-01-28T09:59:30.961Z,16.20
2024-01-28T10:01:57.563Z,16.19
2024-01-28T10:04:26.646Z,16.11
2024-01-28T10:06:53.334Z,15.99
2024-01-28T10:09:19.997Z,16.05
2024-01-28T10:11:46.687Z,16.23
2024-01-28T10:14:13.585Z,16.30
2024-01-28T10:16:42.384Z,17.16
2024-01-28T10:19:15.253Z,16.47
2024-01-28T10:21:42.073Z,16.60
2024-01-28T10:24:08.772Z,16.51
2024-01-28T10:26:38.060Z,16.70
2024-01-28T10:29:05.268Z,16.40
2024-01-28T10:31:31.944Z,16.54
2024-01-28T10:34:05.936Z,16.12
2024-01-28T10:36:33.770Z,16.83
2024-01-28T10:39:06.420Z,16.81
2024-01-28T10:41:39.081Z,16.94
2024-01-28T10:44:06.055Z,17.25
2024-01-28T10:46:32.683Z,17.39
2024-01-28T10:49:01.764Z,17.00
2024-01-28T10:51:28.695Z,17.68
2024-01-28T10:54:01.277Z,17.49
2024-01-28T10:56:28.146Z,17.53
2024-01-28T10:58:54.781Z,17.51
2024-01-28T11:01:21.663Z,17.70
2024-01-28T11:03:49.152Z,17.11
2024-01-28T11:06:15.948Z,17.30
2024-01-28T11:08:42.598Z,18.75
2024-01-28T11:11:18.190Z,17.80
2024-01-28T11:13:45.328Z,17.23
2024-01-28T11:16:12.408Z,17.89
2024-01-28T11:18:39.055Z,17.37
2024-01-28T11:21:06.340Z,17.81
2024-01-28T11:23:33.021Z,17.34
2024-01-28T11:26:03.212Z,18.71
2024-01-28T11:28:29.784Z,18.20
2024-01-28T11:30:56.476Z,17.73
2024-01-28T11:33:23.773Z,17.59
2024-01-28T11:35:50.500Z,19.29
2024-01-28T11:38:23.771Z,18.14
2024-01-28T11:40:50.450Z,18.35
2024-01-28T11:43:17.801Z,19.00
2024-01-28T11:45:47.665Z,18.85
2024-01-28T11:48:14.468Z,18.26
2024-01-28T11:50:45.377Z,18.96
2024-01-28T11:53:13.444Z,19.29
2024-01-28T11:55:43.870Z,19.16
2024-01-28T11:58:12.724Z,19.74
2024-01-28T12:00:42.772Z,19.24
2024-01-28T12:03:09.559Z,19.20
2024-01-28T12:05:36.310Z,18.58
2024-01-28T12:08:05.860Z,19.25
2024-01-28T12:10:34.147Z,19.51
2024-01-28T12:13:00.743Z,20.53
2024-01-28T12:15:27.405Z,20.28
2024-01-28T12:17:54.013Z,20.70
2024-01-28T12:20:23.638Z,20.46
2024-01-28T12:22:50.377Z,19.86
2024-01-28T12:25:19.921Z,21.41
2024-01-28T12:27:46.407Z,21.46
2024-01-28T12:30:12.950Z,21.42
2024-01-28T12:32:39.635Z,21.52
2024-01-28T12:35:12.144Z,22.28
2024-01-28T12:37:38.597Z,21.32
2024-01-28T12:40:05.444Z,21.59
2024-01-28T12:42:32.341Z,20.95
2024-01-28T12:44:58.814Z,21.54
2024-01-28T12:47:25.345Z,22.05
2024-01-28T12:49:52.305Z,20.64
2024-01-28T12:52:18.739Z,21.18
2024-01-28T12:54:45.276Z,21.61
2024-01-28T12:57:11.878Z,21.03
2024-01-28T12:59:38.320Z,21.01
2024-01-28T13:02:07.744Z,20.52
2024-01-28T13:04:34.389Z,20.52
2024-01-28T13:07:01.078Z,20.59
2024-01-28T13:09:27.724Z,20.52
2024-01-28T13:11:54.903Z,20.89
2024-01-28T13:14:21.731Z,19.75
2024-01-28T13:16:49.298Z,19.88
2024-01-28T13:19:16.262Z,19.46
2024-01-28T13:21:43.964Z,19.76
2024-01-28T13:24:10.613Z,19.11
2024-01-28T13:26:37.217Z,17.97
2024-01-28T13:29:06.094Z,18.56
2024-01-28T13:31:33.468Z,20.42
2024-01-28T13:34:00.268Z,26.87
2024-01-28T13:36:34.346Z,18.59
2024-01-28T13:39:06.930Z,23.06
2024-01-28T13:41:33.827Z,19.23
2024-01-28T13:44:00.400Z,20.77
2024-01-28T13:46:26.983Z,19.87
2024-01-28T13:48:53.781Z,19.36
2024-01-28T13:51:20.585Z,20.19
2024-01-28T13:53:49.543Z,19.87
2024-01-28T13:56:16.369Z,19.57
2024-01-28T13:58:43.007Z,20.17
2024-01-28T14:01:09.769Z,20.48
2024-01-28T14:03:40.650Z,19.14
2024-01-28T14:06:09.012Z,19.06
2024-01-28T14:08:35.598Z,19.29
2024-01-28T14:11:03.247Z,19.83
2024-01-28T14:13:30.127Z,20.23
2024-01-28T14:15:56.745Z,20.12
2024-01-28T14:18:23.391Z,19.67
2024-01-28T14:20:55.983Z,19.88
2024-01-28T14:23:22.559Z,21.20
2024-01-28T14:25:49.360Z,20.02
2024-01-28T14:28:18.184Z,19.57
2024-01-28T14:30:44.812Z,19.32
2024-01-28T14:33:14.861Z,19.89
2024-01-28T14:35:41.585Z,19.66
2024-01-28T14:38:08.422Z,19.66
2024-01-28T14:40:37.994Z,19.49
2024-01-28T14:43:04.762Z,19.81
2024-01-28T14:45:31.372Z,19.30
2024-01-28T14:47:58.080Z,19.28
2024-01-28T14:50:24.746Z,18.22
2024-01-28T14:52:51.308Z,18.27
2024-01-28T14:55:17.920Z,20.28
2024-01-28T14:57:44.558Z,23.66
2024-01-28T15:00:11.131Z,29.06
2024-01-28T15:02:37.975Z,34.31
2024-01-28T15:05:05.024Z,50.00
2024-01-28T15:07:31.917Z,27.16
2024-01-28T15:09:58.579Z,17.46
2024-01-28T15:12:26.028Z,18.06
2024-01-28T15:14:52.968Z,17.30
2024-01-28T15:17:19.564Z,17.23
2024-01-28T15:19:46.262Z,17.81
2024-01-28T15:22:13.018Z,18.34
2024-01-28T15:24:39.653Z,17.46
2024-01-28T15:27:06.270Z,17.99
2024-01-28T15:29:33.138Z,18.14
2024-01-28T15:32:09.181Z,17.39
2024-01-28T15:34:35.910Z,18.25
2024-01-28T15:37:02.725Z,16.86
2024-01-28T15:39:29.439Z,16.69
2024-01-28T15:41:56.313Z,16.74
2024-01-28T15:44:23.282Z,17.57
2024-01-28T15:46:49.933Z,16.89
2024-01-28T15:49:16.656Z,17.79
2024-01-28T15:51:46.147Z,16.75
2024-01-28T15:54:12.815Z,16.70
2024-01-28T15:56:39.553Z,17.35
2024-01-28T15:59:06.220Z,17.77
2024-01-28T16:01:33.599Z,18.40
2024-01-28T16:04:00.751Z,18.43
2024-01-28T16:06:29.709Z,17.87
2024-01-28T16:08:56.613Z,17.84
2024-01-28T16:11:23.687Z,18.12
2024-01-28T16:13:50.309Z,17.66
2024-01-28T16:16:18.094Z,19.14
2024-01-28T16:18:48.491Z,19.55
2024-01-28T16:21:15.178Z,17.98
2024-01-28T16:23:42.500Z,18.45
2024-01-28T16:26:09.319Z,18.79
2024-01-28T16:28:35.905Z,19.06
2024-01-28T16:31:02.815Z,19.30
2024-01-28T16:33:32.055Z,19.71
2024-01-28T16:36:02.369Z,19.48
2024-01-28T16:38:28.998Z,18.76
2024-01-28T16:40:55.685Z,18.84
2024-01-28T16:43:22.362Z,18.67
2024-01-28T16:45:49.153Z,19.72
2024-01-28T16:48:15.790Z,20.67
2024-01-28T16:50:45.456Z,19.90
2024-01-28T16:53:11.876Z,18.13
2024-01-28T16:55:38.419Z,18.23
2024-01-28T16:58:05.332Z,18.84
2024-01-28T17:00:37.943Z,19.56
2024-01-28T17:03:04.677Z,19.84
2024-01-28T17:05:31.224Z,19.91
2024-01-28T17:07:57.725Z,19.45
2024-01-28T17:10:24.181Z,19.66
2024-01-28T17:12:50.905Z,20.00
2024-01-28T17:15:17.588Z,19.38
2024-01-28T17:17:44.062Z,19.70
2024-01-28T17:20:10.649Z,18.73
2024-01-28T17:22:39.254Z,19.48
2024-01-28T17:25:08.011Z,19.22
2024-01-28T17:27:35.862Z,19.61
2024-01-28T17:30:02.355Z,19.40
2024-01-28T17:32:28.819Z,19.96
2024-01-28T17:34:58.976Z,20.20
2024-01-28T17:37:26.152Z,19.59
2024-01-28T17:39:52.979Z,20.32
2024-01-28T17:42:20.665Z,19.16
2024-01-28T17:44:53.282Z,20.49
2024-01-28T17:47:19.872Z,20.02
2024-01-28T17:49:46.578Z,19.70
2024-01-28T17:52:13.302Z,21.12
2024-01-28T17:54:40.161Z,20.67
2024-01-28T17:57:07.119Z,20.68
2024-01-28T17:59:33.790Z,21.55
2024-01-28T18:02:00.394Z,21.77
2024-01-28T18:04:27.212Z,22.11
2024-01-28T18:06:53.947Z,22.52
2024-01-28T18:09:21.231Z,21.54
2024-01-28T18:11:47.928Z,22.83
2024-01-28T18:14:14.579Z,23.96
2024-01-28T18:16:42.193Z,23.99
2024-01-28T18:19:08.862Z,24.68
2024-01-28T18:21:35.534Z,25.34
2024-01-28T18:24:02.222Z,26.13
2024-01-28T18:26:28.850Z,23.85
2024-01-28T18:28:55.515Z,23.82
2024-01-28T18:31:22.836Z,22.39
2024-01-28T18:33:49.556Z,22.42
2024-01-28T18:36:16.633Z,23.68
2024-01-28T18:38:43.298Z,22.16
2024-01-28T18:41:09.918Z,21.81
2024-01-28T18:43:38.690Z,21.52
2024-01-28T18:46:05.287Z,22.46
2024-01-28T18:48:31.921Z,23.36
2024-01-28T18:50:58.471Z,23.89
2024-01-28T18:53:27.296Z,23.08
2024-01-28T18:55:53.750Z,23.31
2024-01-28T18:58:25.313Z,22.83
2024-01-28T19:00:52.816Z,22.58
2024-01-28T19:03:39.323Z,23.37
2024-01-28T19:06:25.856Z,23.62
2024-01-28T19:09:12.400Z,25.50
2024-01-28T19:12:01.134Z,25.76
2024-01-28T19:14:48.794Z,25.67
2024-01-28T19:17:35.514Z,25.95
2024-01-28T19:20:21.989Z,26.89
2024-01-28T19:22:48.443Z,26.34
2024-01-28T19:25:17.859Z,25.53
2024-01-28T19:27:47.434Z,24.79
2024-01-28T19:30:14.195Z,25.22
2024-01-28T19:32:41.634Z,25.08
2024-01-28T19:35:08.131Z,25.18
2024-01-28T19:37:54.626Z,23.91
2024-01-28T19:40:21.091Z,23.37
2024-01-28T19:42:47.633Z,22.81
2024-01-28T19:45:15.496Z,23.60
2024-01-28T19:48:04.685Z,22.94
2024-01-28T19:50:31.167Z,22.21
2024-01-28T19:52:58.587Z,22.67
2024-01-28T19:55:45.030Z,23.44
2024-01-28T19:58:11.423Z,23.47
2024-01-28T20:00:37.972Z,24.04
2024-01-28T20:03:04.394Z,24.20
2024-01-28T20:05:34.838Z,24.23
2024-01-28T20:08:01.571Z,24.40
2024-01-28T20:10:27.997Z,25.97
2024-01-28T20:12:54.441Z,25.74
2024-01-28T20:15:41.251Z,24.60
2024-01-28T20:18:07.799Z,24.50
2024-01-28T20:20:35.271Z,23.89
2024-01-28T20:23:04.732Z,24.38
2024-01-28T20:25:31.226Z,24.56
2024-01-28T20:27:59.150Z,25.14
2024-01-28T20:30:26.756Z,25.39
2024-01-28T20:32:53.282Z,26.47
2024-01-28T20:35:19.894Z,26.55
2024-01-28T20:37:48.621Z,25.16
2024-01-28T20:40:15.162Z,23.61
2024-01-28T20:42:41.646Z,22.93
2024-01-28T20:45:08.206Z,22.79
2024-01-28T20:47:34.630Z,20.30
2024-01-28T20:50:05.875Z,19.63
2024-01-28T20:52:32.568Z,18.38
2024-01-28T20:54:59.325Z,18.25
2024-01-28T20:57:28.193Z,18.96
2024-01-28T20:59:55.906Z,22.47
2024-01-28T21:02:22.519Z,20.58
2024-01-28T21:04:55.165Z,20.27
2024-01-28T21:07:21.757Z,19.03
2024-01-28T21:09:54.376Z,18.22
2024-01-28T21:12:23.542Z,16.10
2024-01-28T21:14:50.569Z,16.00
2024-01-28T21:17:17.204Z,15.48
2024-01-28T21:19:44.095Z,16.25
2024-01-28T21:22:11.001Z,15.89
2024-01-28T21:24:37.764Z,15.62
2024-01-28T21:27:04.421Z,16.32
2024-01-28T21:29:31.005Z,16.84
2024-01-28T21:31:57.809Z,16.60
2024-01-28T21:34:24.627Z,17.08
2024-01-28T21:36:51.351Z,18.35
2024-01-28T21:39:18.018Z,19.11
2024-01-28T21:41:44.598Z,18.79
2024-01-28T21:44:11.234Z,18.98
2024-01-28T21:46:37.736Z,19.11
2024-01-28T21:49:04.441Z,20.02
2024-01-28T21:51:31.017Z,20.05
2024-01-28T21:53:57.480Z,20.73
2024-01-28T21:56:24.178Z,21.08
2024-01-28T21:58:51.661Z,20.93
2024-01-28T22:01:18.303Z,22.42
2024-01-28T22:03:44.886Z,23.10
2024-01-28T22:06:11.856Z,22.95
2024-01-28T22:08:58.289Z,23.87
2024-01-28T22:11:44.712Z,24.37
2024-01-28T22:14:31.210Z,24.16
2024-01-28T22:16:57.730Z,24.81
2024-01-28T22:19:24.438Z,25.98
2024-01-28T22:21:50.996Z,27.44
2024-01-28T22:24:20.738Z,27.00
2024-01-28T22:26:47.201Z,27.70
2024-01-28T22:29:13.673Z,26.35
2024-01-28T22:31:40.415Z,25.65
2024-01-28T22:34:06.973Z,27.43
2024-01-28T22:36:34.446Z,29.19
2024-01-28T22:39:00.914Z,28.53
2024-01-28T22:41:28.702Z,27.30
2024-01-28T22:43:55.174Z,25.59
2024-01-28T22:46:22.830Z,23.66
2024-01-28T22:48:50.219Z,24.01
2024-01-28T22:51:16.850Z,22.78
2024-01-28T22:53:43.464Z,21.74
2024-01-28T22:56:10.040Z,20.00
2024-01-28T22:58:36.874Z,22.36
2024-01-28T23:01:03.504Z,26.30
2024-01-28T23:03:30.398Z,35.52
2024-01-28T23:05:57.094Z,34.18
2024-01-28T23:08:23.766Z,28.44
2024-01-28T23:10:50.363Z,23.41
2024-01-28T23:13:17.241Z,20.82
2024-01-28T23:15:43.746Z,18.64
2024-01-28T23:18:10.293Z,18.20
2024-01-28T23:20:36.844Z,18.25
2024-01-28T23:23:03.268Z,18.33
2024-01-28T23:25:29.691Z,18.80
2024-01-28T23:27:56.608Z,18.66
2024-01-28T23:30:23.754Z,22.55
2024-01-28T23:32:50.566Z,24.64
2024-01-28T23:35:19.444Z,27.06
2024-01-28T23:37:45.975Z,25.17
2024-01-28T23:40:12.700Z,21.45
2024-01-28T23:42:39.318Z,21.05
2024-01-28T23:45:05.827Z,21.40
2024-01-28T23:47:32.334Z,21.17
2024-01-28T23:49:58.854Z,20.26
2024-01-28T23:52:25.345Z,19.26
2024-01-28T23:54:52.440Z,17.81
2024-01-28T23:57:18.982Z,17.39
2024-01-28T23:59:45.455Z,16.36
